Terminal Aerodrome Forecast
Issued by NWS

Home | Current Version | Previous Version | Text Only | Print | Product List | Glossary On
Versions: 1 2 3 4 5 6 7 8 9 10 11 12 13 14 15 16
000
FTUS43 KGLD 230546
TAFMCK
TAF
KMCK 230546Z 2306/2406 31022G32KT 6SM -TSRA BKN025CB
     FM230800 34018G21KT P6SM VCTS BKN060CB
     FM231000 34008KT P6SM BKN100
     FM231500 01007KT P6SM SCT120
     FM232100 VRB04KT P6SM SCT060
     FM240000 06006KT P6SM VCTS BKN040CB=

USA.gov is the U.S. government's official web portal to all federal, state and local government web resources and services.